createdAt,value
2022-09-25T00:02:08.748Z,6.95
2022-09-25T00:04:54.056Z,7.88
2022-09-25T00:07:39.378Z,8.07
2022-09-25T00:10:25.635Z,7.43
2022-09-25T00:13:11.735Z,7.35
2022-09-25T00:15:57.804Z,7.45
2022-09-25T00:19:02.437Z,8.10
2022-09-25T00:21:52.900Z,8.60
2022-09-25T00:24:38.468Z,7.93
2022-09-25T00:27:23.839Z,8.80
2022-09-25T00:30:10.873Z,8.50
2022-09-25T00:32:56.443Z,9.60
2022-09-25T00:35:41.744Z,8.50
2022-09-25T00:38:27.087Z,8.50
2022-09-25T00:41:12.440Z,8.68
2022-09-25T00:43:58.927Z,8.95
2022-09-25T00:46:44.735Z,9.00
2022-09-25T00:49:29.879Z,8.77
2022-09-25T00:52:15.750Z,7.35
2022-09-25T00:55:05.233Z,8.48
2022-09-25T00:57:54.051Z,8.65
2022-09-25T01:00:39.726Z,9.02
2022-09-25T01:03:27.368Z,8.98
2022-09-25T01:06:14.796Z,10.38
2022-09-25T01:09:00.278Z,9.38
2022-09-25T01:11:46.131Z,9.93
2022-09-25T01:14:34.144Z,10.25
2022-09-25T01:17:52.253Z,9.75
2022-09-25T01:21:05.438Z,8.38
2022-09-25T01:24:11.184Z,9.98
2022-09-25T01:27:18.093Z,9.68
2022-09-25T01:30:11.140Z,9.40
2022-09-25T01:33:13.226Z,9.43
2022-09-25T01:36:27.255Z,8.82
2022-09-25T01:39:22.615Z,9.38
2022-09-25T01:42:21.665Z,8.93
2022-09-25T01:45:10.881Z,8.75
2022-09-25T01:47:59.584Z,9.25
2022-09-25T01:50:50.878Z,9.93
2022-09-25T01:53:45.847Z,11.57
2022-09-25T01:56:40.731Z,12.02
2022-09-25T01:59:35.585Z,11.23
2022-09-25T02:02:26.766Z,10.10
2022-09-25T02:05:20.323Z,11.00
2022-09-25T02:08:11.014Z,10.80
2022-09-25T02:11:02.256Z,10.90
2022-09-25T02:13:54.090Z,11.05
2022-09-25T02:16:43.786Z,11.93
2022-09-25T02:19:47.819Z,13.18
2022-09-25T02:22:35.156Z,14.73
2022-09-25T02:25:49.363Z,15.68
2022-09-25T02:28:35.743Z,16.63
2022-09-25T02:31:26.243Z,17.23
2022-09-25T02:34:15.101Z,18.05
2022-09-25T02:37:00.630Z,19.67
2022-09-25T02:39:54.571Z,20.33
2022-09-25T02:42:52.227Z,19.27
2022-09-25T02:46:09.490Z,22.40
2022-09-25T02:49:05.983Z,21.73
2022-09-25T02:52:06.545Z,22.75
2022-09-25T02:55:12.119Z,23.35
2022-09-25T02:58:04.443Z,22.92
2022-09-25T03:00:52.089Z,22.58
2022-09-25T03:03:38.424Z,24.02
2022-09-25T03:06:25.168Z,25.00
2022-09-25T03:09:11.582Z,23.30
2022-09-25T03:11:57.518Z,23.30
2022-09-25T03:14:43.006Z,23.42
2022-09-25T03:17:28.703Z,23.70
2022-09-25T03:20:13.807Z,23.73
2022-09-25T03:22:59.178Z,23.23
2022-09-25T03:25:49.757Z,23.85
2022-09-25T03:28:35.564Z,24.23
2022-09-25T03:31:21.082Z,24.20
2022-09-25T03:34:06.377Z,23.63
2022-09-25T03:36:51.689Z,23.77
2022-09-25T03:39:36.968Z,23.30
2022-09-25T03:42:22.357Z,24.63
2022-09-25T03:45:10.897Z,25.10
2022-09-25T03:47:56.263Z,22.48
2022-09-25T03:50:41.953Z,23.20
2022-09-25T03:53:27.696Z,25.30
2022-09-25T03:56:15.088Z,25.75
2022-09-25T03:59:00.539Z,24.38
2022-09-25T04:01:47.460Z,25.08
2022-09-25T04:04:32.597Z,25.27
2022-09-25T04:07:18.160Z,26.27
2022-09-25T04:10:03.703Z,23.88
2022-09-25T04:12:54.408Z,26.48
2022-09-25T04:15:42.422Z,25.42
2022-09-25T04:18:33.957Z,26.48
2022-09-25T04:21:19.324Z,25.87
2022-09-25T04:24:23.271Z,25.95
2022-09-25T04:27:09.231Z,24.98
2022-09-25T04:29:54.668Z,23.60
2022-09-25T04:32:58.564Z,23.98
2022-09-25T04:35:44.148Z,22.30
2022-09-25T04:38:31.623Z,22.35
2022-09-25T04:41:19.601Z,21.58
2022-09-25T04:44:05.683Z,22.63
2022-09-25T04:46:52.440Z,23.15
2022-09-25T04:49:38.508Z,22.20
2022-09-25T04:52:23.898Z,22.45
2022-09-25T04:55:09.476Z,20.23
2022-09-25T04:57:59.366Z,21.63
2022-09-25T05:00:44.887Z,21.40
2022-09-25T05:03:30.251Z,19.98
2022-09-25T05:06:15.615Z,20.30
2022-09-25T05:09:00.692Z,19.33
2022-09-25T05:11:47.144Z,18.85
2022-09-25T05:14:32.411Z,20.65
2022-09-25T05:17:17.784Z,20.23
2022-09-25T05:20:03.621Z,20.58
2022-09-25T05:22:48.856Z,20.15
2022-09-25T05:25:34.301Z,21.23
2022-09-25T05:28:19.739Z,20.48
2022-09-25T05:31:06.136Z,20.27
2022-09-25T05:33:52.558Z,22.52
2022-09-25T05:36:37.839Z,21.17
2022-09-25T05:39:23.202Z,20.38
2022-09-25T05:42:08.947Z,21.40
2022-09-25T05:44:54.360Z,20.52
2022-09-25T05:47:41.010Z,21.80
2022-09-25T05:50:26.996Z,21.45
2022-09-25T05:53:12.117Z,21.40
2022-09-25T05:55:59.475Z,21.83
2022-09-25T05:58:44.941Z,22.33
2022-09-25T06:01:30.290Z,21.23
2022-09-25T06:04:15.563Z,21.70
2022-09-25T06:07:01.536Z,20.45
2022-09-25T06:09:46.655Z,21.73
2022-09-25T06:12:32.162Z,23.42
2022-09-25T06:15:17.514Z,20.42
2022-09-25T06:18:06.362Z,22.35
2022-09-25T06:20:58.252Z,24.17
2022-09-25T06:23:48.593Z,23.23
2022-09-25T06:26:34.123Z,22.30
2022-09-25T06:29:19.762Z,22.17
2022-09-25T06:32:05.112Z,21.25
2022-09-25T06:34:50.752Z,23.45
2022-09-25T06:37:36.171Z,21.65
2022-09-25T06:40:21.629Z,21.15
2022-09-25T06:43:10.173Z,21.73
2022-09-25T06:45:58.867Z,24.15
2022-09-25T06:48:44.914Z,22.42
2022-09-25T06:51:35.220Z,22.10
2022-09-25T06:54:20.646Z,21.17
2022-09-25T06:57:06.109Z,21.98
2022-09-25T06:59:51.452Z,21.25
2022-09-25T07:02:55.481Z,22.25
2022-09-25T07:05:42.560Z,22.50
2022-09-25T07:08:28.399Z,22.52
2022-09-25T07:11:23.034Z,21.95
2022-09-25T07:14:10.224Z,21.58
2022-09-25T07:16:55.380Z,21.70
2022-09-25T07:19:40.749Z,21.20
2022-09-25T07:22:26.048Z,21.83
2022-09-25T07:25:12.577Z,23.38
2022-09-25T07:27:59.054Z,21.65
2022-09-25T07:30:59.119Z,21.05
2022-09-25T07:33:53.087Z,13.77
2022-09-25T07:36:40.395Z,15.65
2022-09-25T07:39:26.113Z,18.63
2022-09-25T07:42:11.724Z,22.38
2022-09-25T07:44:57.152Z,21.52
2022-09-25T07:47:42.400Z,21.38
2022-09-25T07:50:32.159Z,21.67
2022-09-25T07:53:18.661Z,19.60
2022-09-25T07:56:06.967Z,22.50
2022-09-25T07:58:53.775Z,22.13
2022-09-25T08:01:43.716Z,24.15
2022-09-25T08:04:31.160Z,23.00
2022-09-25T08:07:16.461Z,24.50
2022-09-25T08:10:02.041Z,24.60
2022-09-25T08:12:47.494Z,24.00
2022-09-25T08:15:33.334Z,24.10
2022-09-25T08:18:18.787Z,22.88
2022-09-25T08:21:05.101Z,23.55
2022-09-25T08:23:52.344Z,24.05
2022-09-25T08:26:37.571Z,25.73
2022-09-25T08:29:23.123Z,23.02
2022-09-25T08:32:08.708Z,23.60
2022-09-25T08:34:55.144Z,23.02
2022-09-25T08:37:42.006Z,23.35
2022-09-25T08:40:31.132Z,22.33
2022-09-25T08:43:21.581Z,23.25
2022-09-25T08:46:44.581Z,23.50
2022-09-25T08:52:21.491Z,22.65
2022-09-25T08:55:17.044Z,25.20
2022-09-25T08:58:02.478Z,24.08
2022-09-25T09:00:49.071Z,23.85
2022-09-25T09:03:45.672Z,23.90
2022-09-25T09:06:32.471Z,23.20
2022-09-25T09:09:23.914Z,23.98
2022-09-25T09:12:33.153Z,23.38
2022-09-25T09:15:35.560Z,24.83
2022-09-25T09:18:27.126Z,22.92
2022-09-25T09:21:35.716Z,23.05
2022-09-25T09:24:40.413Z,20.38
2022-09-25T09:27:53.446Z,21.83
2022-09-25T09:34:46.482Z,22.52
2022-09-25T09:37:54.961Z,22.10
2022-09-25T09:41:02.037Z,24.30
2022-09-25T09:44:23.814Z,21.52
2022-09-25T09:47:12.151Z,20.85
2022-09-25T09:50:18.877Z,20.50
2022-09-25T09:53:09.802Z,22.17
2022-09-25T09:56:05.642Z,20.42
2022-09-25T09:58:55.583Z,19.95
2022-09-25T10:01:43.405Z,19.83
2022-09-25T10:04:37.802Z,20.40
2022-09-25T10:07:27.008Z,18.33
2022-09-25T10:10:15.975Z,18.15
2022-09-25T10:13:06.612Z,18.70
2022-09-25T10:15:57.260Z,16.60
2022-09-25T10:18:54.634Z,15.20
2022-09-25T10:21:46.275Z,14.15
2022-09-25T10:24:52.884Z,14.65
2022-09-25T10:27:45.911Z,15.18
2022-09-25T10:30:31.255Z,14.07
2022-09-25T10:33:23.184Z,15.00
2022-09-25T10:36:08.420Z,12.47
2022-09-25T10:39:05.073Z,13.30
2022-09-25T10:42:00.964Z,13.57
2022-09-25T10:44:46.192Z,13.60
2022-09-25T10:47:50.576Z,12.68
2022-09-25T10:50:36.919Z,11.93
2022-09-25T10:53:28.841Z,11.15
2022-09-25T10:56:32.900Z,11.27
2022-09-25T10:59:23.325Z,10.50
2022-09-25T11:02:31.421Z,11.07
2022-09-25T11:05:31.417Z,10.05
2022-09-25T11:08:16.843Z,9.13
2022-09-25T11:11:03.179Z,9.60
2022-09-25T11:13:54.580Z,8.60
2022-09-25T11:16:54.007Z,9.55
2022-09-25T11:19:39.207Z,8.57
2022-09-25T11:22:37.779Z,9.75
2022-09-25T11:25:32.082Z,9.90
2022-09-25T11:28:49.099Z,9.57
2022-09-25T11:31:42.961Z,10.15
2022-09-25T11:34:40.234Z,9.32
2022-09-25T11:37:50.217Z,9.02
2022-09-25T11:41:15.978Z,9.35
2022-09-25T11:44:32.756Z,9.68
2022-09-25T11:47:46.009Z,9.82
2022-09-25T11:50:48.101Z,8.20
2022-09-25T11:54:12.424Z,8.88
2022-09-25T11:57:36.490Z,8.67
2022-09-25T12:00:42.021Z,9.63
2022-09-25T12:04:04.755Z,9.60
2022-09-25T12:07:05.918Z,10.18
2022-09-25T12:10:19.372Z,9.82
2022-09-25T12:13:40.575Z,8.73
2022-09-25T12:16:48.165Z,6.53
2022-09-25T12:20:11.468Z,8.23
2022-09-25T12:23:25.182Z,7.88
2022-09-25T12:26:41.614Z,8.43
2022-09-25T12:29:49.485Z,8.02
2022-09-25T12:32:53.256Z,7.65
2022-09-25T12:35:57.121Z,9.10
2022-09-25T12:38:55.224Z,7.03
2022-09-25T12:41:50.708Z,8.10
2022-09-25T12:44:54.872Z,8.07
2022-09-25T12:48:13.939Z,7.70
2022-09-25T12:51:11.179Z,7.40
2022-09-25T12:54:01.506Z,7.60
2022-09-25T12:56:51.289Z,8.88
2022-09-25T12:59:52.930Z,8.70
2022-09-25T13:03:11.451Z,7.97
2022-09-25T13:06:11.794Z,8.73
2022-09-25T13:09:30.711Z,7.35
2022-09-25T13:12:22.831Z,6.90
2022-09-25T13:15:16.003Z,5.40
2022-09-25T13:18:02.885Z,4.35
2022-09-25T13:20:49.081Z,3.28
2022-09-25T13:23:37.545Z,4.03
2022-09-25T13:26:27.003Z,4.03
2022-09-25T13:29:30.582Z,5.03
2022-09-25T13:32:23.225Z,5.25
2022-09-25T13:38:50.066Z,5.13
2022-09-25T13:41:35.480Z,6.53
2022-09-25T13:44:43.050Z,7.30
2022-09-25T13:47:32.123Z,6.22
2022-09-25T13:50:19.731Z,6.00
2022-09-25T13:53:18.297Z,6.90
2022-09-25T13:56:03.341Z,7.85
2022-09-25T13:59:19.291Z,6.28
2022-09-25T14:02:37.192Z,6.85
2022-09-25T14:05:27.024Z,7.25
2022-09-25T14:08:17.487Z,8.48
2022-09-25T14:11:05.409Z,6.45
2022-09-25T14:13:55.187Z,7.22
2022-09-25T14:16:43.222Z,6.68
2022-09-25T14:19:39.810Z,7.00
2022-09-25T14:22:46.063Z,5.82
2022-09-25T14:25:36.113Z,4.50
2022-09-25T14:28:30.407Z,3.78
2022-09-25T14:31:37.462Z,3.35
2022-09-25T14:34:38.081Z,3.00
2022-09-25T14:37:39.869Z,1.88
2022-09-25T14:40:33.936Z,2.60
2022-09-25T14:43:42.439Z,2.50
2022-09-25T14:46:28.241Z,1.98
2022-09-25T14:49:30.263Z,2.05
2022-09-25T14:52:24.035Z,1.77
2022-09-25T14:55:16.352Z,2.35
2022-09-25T14:58:02.674Z,1.88
2022-09-25T15:00:54.017Z,1.50
2022-09-25T15:03:43.898Z,1.65
2022-09-25T15:06:32.797Z,1.83
2022-09-25T15:09:36.585Z,2.20
2022-09-25T15:12:29.726Z,1.40
2022-09-25T15:15:16.759Z,1.77
2022-09-25T15:18:02.775Z,1.63
2022-09-25T15:20:49.030Z,1.50
2022-09-25T15:23:35.347Z,2.17
2022-09-25T15:26:21.450Z,1.20
2022-09-25T15:29:18.350Z,1.50
2022-09-25T15:32:05.136Z,1.30
2022-09-25T15:34:50.712Z,1.38
2022-09-25T15:37:37.483Z,1.30
2022-09-25T15:40:28.575Z,1.10
2022-09-25T15:43:16.184Z,1.30
2022-09-25T15:46:07.860Z,1.33
2022-09-25T15:48:56.194Z,1.30
2022-09-25T15:51:51.923Z,1.52
2022-09-25T15:54:44.386Z,1.40
2022-09-25T15:57:31.933Z,1.20
2022-09-25T16:00:44.239Z,2.58
2022-09-25T16:03:49.803Z,3.55
2022-09-25T16:06:43.578Z,2.55
2022-09-25T16:09:32.285Z,2.53
2022-09-25T16:12:27.417Z,2.58
2022-09-25T16:15:27.570Z,2.58
2022-09-25T16:18:37.243Z,2.28
2022-09-25T16:21:31.647Z,1.92
2022-09-25T16:24:23.214Z,1.40
2022-09-25T16:27:22.738Z,1.40
2022-09-25T16:30:17.087Z,1.65
2022-09-25T16:33:16.514Z,1.95
2022-09-25T16:36:14.428Z,2.20
2022-09-25T16:39:10.239Z,2.10
2022-09-25T16:41:56.404Z,2.50
2022-09-25T16:44:47.090Z,1.98
2022-09-25T16:47:34.206Z,2.15
2022-09-25T16:50:21.271Z,3.08
2022-09-25T16:53:07.008Z,2.80
2022-09-25T16:55:53.169Z,2.30
2022-09-25T16:58:38.304Z,2.45
2022-09-25T17:01:26.444Z,2.88
2022-09-25T17:04:13.451Z,2.40
2022-09-25T17:06:58.755Z,2.60
2022-09-25T17:09:44.176Z,2.70
2022-09-25T17:12:31.272Z,3.08
2022-09-25T17:15:48.002Z,2.92
2022-09-25T17:18:33.092Z,2.88
2022-09-25T17:21:20.033Z,3.22
2022-09-25T17:24:05.320Z,3.78
2022-09-25T17:26:51.902Z,3.60
2022-09-25T17:29:38.453Z,3.70
2022-09-25T17:32:23.786Z,3.75
2022-09-25T17:35:31.115Z,3.35
2022-09-25T17:38:16.561Z,3.38
2022-09-25T17:41:06.016Z,2.97
2022-09-25T17:43:52.573Z,3.35
2022-09-25T17:46:38.746Z,4.10
2022-09-25T17:49:25.456Z,3.40
2022-09-25T17:52:16.400Z,3.15
2022-09-25T17:55:01.415Z,3.25
2022-09-25T17:57:47.592Z,3.38
2022-09-25T18:00:32.717Z,4.00
2022-09-25T18:03:18.868Z,3.65
2022-09-25T18:06:05.093Z,3.83
2022-09-25T18:08:51.291Z,3.88
2022-09-25T18:11:36.746Z,4.15
2022-09-25T18:14:22.229Z,3.85
2022-09-25T18:17:07.523Z,4.07
2022-09-25T18:20:11.408Z,4.00
2022-09-25T18:22:56.857Z,3.72
2022-09-25T18:25:42.229Z,3.20
2022-09-25T18:28:29.880Z,4.10
2022-09-25T18:31:15.060Z,4.07
2022-09-25T18:34:00.308Z,4.20
2022-09-25T18:36:45.948Z,3.83
2022-09-25T18:39:31.518Z,4.75
2022-09-25T18:42:17.904Z,5.63
2022-09-25T18:45:05.105Z,5.05
2022-09-25T18:47:50.356Z,6.97
2022-09-25T18:50:37.292Z,5.88
2022-09-25T18:53:22.649Z,5.53
2022-09-25T18:56:08.900Z,7.72
2022-09-25T18:58:54.550Z,6.72
2022-09-25T19:01:40.379Z,6.60
2022-09-25T19:04:26.224Z,6.55
2022-09-25T19:07:11.259Z,7.15
2022-09-25T19:09:58.320Z,8.30
2022-09-25T19:12:44.964Z,7.88
2022-09-25T19:15:30.530Z,6.72
2022-09-25T19:18:16.124Z,6.57
2022-09-25T19:21:01.825Z,6.95
2022-09-25T19:23:48.356Z,6.35
2022-09-25T19:26:33.643Z,6.97
2022-09-25T19:29:19.053Z,6.63
2022-09-25T19:32:10.118Z,7.50
2022-09-25T19:34:55.204Z,6.13
2022-09-25T19:37:42.022Z,7.07
2022-09-25T19:40:36.518Z,6.55
2022-09-25T19:43:21.872Z,6.45
2022-09-25T19:46:07.544Z,6.38
2022-09-25T19:48:52.903Z,6.68
2022-09-25T19:51:38.686Z,6.47
2022-09-25T19:54:23.730Z,6.20
2022-09-25T19:57:09.206Z,6.03
2022-09-25T19:59:54.548Z,5.85
2022-09-25T20:02:43.745Z,5.40
2022-09-25T20:05:29.172Z,5.00
2022-09-25T20:08:14.616Z,4.75
2022-09-25T20:11:00.223Z,4.25
2022-09-25T20:13:46.550Z,3.88
2022-09-25T20:16:32.170Z,4.00
2022-09-25T20:19:19.240Z,3.92
2022-09-25T20:22:05.938Z,3.95
2022-09-25T20:24:51.492Z,4.18
2022-09-25T20:27:37.241Z,4.43
2022-09-25T20:30:24.396Z,4.32
2022-09-25T20:33:09.661Z,4.82
2022-09-25T20:35:55.055Z,4.65
2022-09-25T20:38:40.878Z,4.70
2022-09-25T20:41:26.344Z,5.20
2022-09-25T20:44:11.552Z,4.57
2022-09-25T20:46:56.770Z,6.10
2022-09-25T20:49:42.805Z,6.10
2022-09-25T20:52:30.959Z,6.30
2022-09-25T20:55:16.283Z,7.38
2022-09-25T20:58:01.424Z,7.10
2022-09-25T21:00:47.383Z,7.50
2022-09-25T21:03:35.857Z,6.28
2022-09-25T21:06:23.914Z,6.82
2022-09-25T21:09:29.658Z,7.25
2022-09-25T21:12:14.768Z,6.90
2022-09-25T21:15:00.073Z,5.97
2022-09-25T21:17:45.480Z,5.43
2022-09-25T21:20:30.901Z,5.20
2022-09-25T21:23:16.148Z,5.47
2022-09-25T21:26:10.696Z,5.88
2022-09-25T21:28:58.035Z,4.85
2022-09-25T21:31:49.420Z,5.25
2022-09-25T21:34:35.605Z,5.10
2022-09-25T21:37:20.863Z,5.78
2022-09-25T21:40:06.977Z,5.15
2022-09-25T21:42:52.185Z,5.68
2022-09-25T21:45:38.039Z,5.50
2022-09-25T21:48:23.361Z,5.53
2022-09-25T21:51:08.979Z,5.75
2022-09-25T21:53:55.319Z,5.57
2022-09-25T21:56:41.294Z,5.45
2022-09-25T21:59:26.644Z,6.38
2022-09-25T22:02:11.975Z,6.60
2022-09-25T22:04:57.440Z,6.43
2022-09-25T22:07:42.901Z,6.68
2022-09-25T22:10:27.822Z,8.90
2022-09-25T22:13:13.246Z,8.70
2022-09-25T22:16:06.608Z,8.88
2022-09-25T22:18:53.337Z,8.90
2022-09-25T22:21:39.416Z,10.07
2022-09-25T22:24:25.211Z,10.02
2022-09-25T22:27:10.304Z,9.68
2022-09-25T22:29:55.723Z,9.35
2022-09-25T22:32:41.186Z,8.35
2022-09-25T22:35:26.699Z,8.95
2022-09-25T22:38:12.244Z,9.35
2022-09-25T22:41:01.750Z,8.77
2022-09-25T22:43:50.530Z,7.05
2022-09-25T22:46:36.021Z,7.20
2022-09-25T22:49:21.462Z,8.45
2022-09-25T22:52:06.742Z,7.65
2022-09-25T22:54:52.064Z,7.05
2022-09-25T22:57:38.946Z,7.43
2022-09-25T23:00:24.250Z,7.10
2022-09-25T23:03:10.436Z,7.28
2022-09-25T23:05:57.384Z,7.10
2022-09-25T23:08:42.377Z,7.40
2022-09-25T23:11:28.853Z,6.43
2022-09-25T23:14:19.709Z,6.88
2022-09-25T23:17:05.006Z,8.02
2022-09-25T23:19:50.355Z,8.15
2022-09-25T23:22:35.576Z,7.65
2022-09-25T23:25:23.248Z,6.82
2022-09-25T23:28:08.513Z,6.55
2022-09-25T23:30:53.967Z,6.53
2022-09-25T23:33:40.007Z,6.40
2022-09-25T23:36:26.254Z,5.93
2022-09-25T23:39:18.499Z,5.78
2022-09-25T23:42:03.824Z,5.88
2022-09-25T23:44:49.498Z,4.93
2022-09-25T23:47:34.807Z,5.68
2022-09-25T23:50:20.043Z,4.47
2022-09-25T23:53:05.921Z,5.03
2022-09-25T23:55:51.356Z,4.47
2022-09-25T23:58:36.883Z,4.68
